Latest Weather Observations for Tasman Island

IDT60801

Issued at 12:35 pm EDT Wednesday 26 November 2014 (issued every 30 minutes, with the page automatically refreshed every 10 minutes)

About weather observations | Map of weather stations | Latest weather observations for TAS | Other Formats
Station Details ID: 094155 Name: TASMAN ISLAND Lat: -43.24 Lon: 148.00 Height: 240.0 m
Data from the previous 72 hours. | See also: Recent months at Tasman Island
Date/Time
EDT
Temp
°C
App
Temp
°C
Dew
Point
Rel
Hum
%
Delta-T
°C
Wind Press
QNH
hPa
Press
MSL
hPa
Rain
since 9 am
mm
Dir
 
Spd
km/h
Gust
km/h
Spd
kts
Gust
kts
26/12:30pm 8.9 3.0 7.7 92 0.6 WSW 28 63 15 34 1013.9 1013.9 1.2
26/12:25pm 8.8 3.0 8.0 95 0.4 WSW 28 61 15 33 1013.9 1013.9 1.2
26/12:00pm 8.9 3.2 6.9 87 0.9 WSW 26 57 14 31 1013.6 1013.6 0.4
26/11:30am 10.7 3.9 5.3 69 2.5 SW 30 65 16 35 1013.1 1013.1 0.4
26/11:18am 10.3 4.0 5.9 74 2.1 WSW 28 61 15 33 1013.0 1013.0 0.4
26/11:00am 9.7 5.3 6.6 81 1.5 NW 19 50 10 27 1012.9 1012.9 0.4
26/10:30am 9.1 5.4 6.5 84 1.2 WSW 15 48 8 26 1012.7 1012.7 0.4
26/10:00am 8.4 1.8 5.9 84 1.2 WSW 30 65 16 35 1012.0 1012.0 0.4
26/09:39am 8.9 2.1 5.3 78 1.6 WSW 30 67 16 36 1011.7 1011.7 0.2
26/09:30am 9.7 4.7 4.7 71 2.3 WSW 20 52 11 28 1011.8 1011.8 0.2
26/09:00am 10.3 6.4 3.6 63 3.0 NW 13 43 7 23 1011.1 1011.1 0.8
26/08:30am 10.5 6.6 3.3 61 3.2 N 13 43 7 23 1010.7 1010.6 0.8
26/08:00am 10.1 6.4 4.3 67 2.6 WNW 13 43 7 23 1010.5 1010.4 0.8
26/07:30am 9.9 5.6 3.2 63 2.9 NW 15 39 8 21 1009.7 1009.7 0.8
26/07:00am 10.1 6.6 3.6 64 2.9 NNW 11 32 6 17 1009.9 1009.9 0.8
26/06:30am 9.8 5.8 2.9 62 3.0 NE 13 48 7 26 1009.0 1009.0 0.8
26/06:00am 9.4 5.7 4.2 70 2.3 NNE 13 32 7 17 1008.8 1008.8 0.8
26/05:30am 9.4 5.6 3.8 68 2.5 NE 13 41 7 22 1008.4 1008.4 0.8
26/05:00am 9.5 4.0 3.9 68 2.5 WSW 22 61 12 33 1008.0 1008.0 0.8
26/04:45am 9.3 2.8 4.9 74 2.0 WSW 28 59 15 32 1007.8 1007.8 0.8
26/04:30am 9.3 3.4 5.7 78 1.7 WSW 26 52 14 28 1007.7 1007.7 0.8
26/04:00am 9.2 2.8 6.8 85 1.1 SW 30 57 16 31 1007.8 1007.8 0.8
26/03:55am 9.3 3.4 7.3 87 1.0 SW 28 61 15 33 1007.7 1007.7 0.8
26/03:30am 8.9 4.2 7.8 93 0.5 SW 22 52 12 28 1007.7 1007.7 0.8
26/03:17am 8.9 3.3 8.8 99 0.0 SW 28 57 15 31 1007.7 1007.7 0.6
26/03:00am 8.9 4.8 8.8 99 0.0 SW 20 46 11 25 1007.8 1007.8 0.6
26/02:30am 10.2 6.7 7.1 81 1.5 NW 15 32 8 17 1007.7 1007.7 0.4
26/02:04am 10.4 2.6 6.5 77 1.9 WNW 37 65 20 35 1007.5 1007.5 0.2
26/02:00am 10.5 2.6 6.3 75 2.0 WNW 37 54 20 29 1007.5 1007.5 0.2
26/01:30am 10.8 1.9 5.1 68 2.6 NW 41 59 22 32 1007.5 1007.5 0.2
26/01:03am 10.8 3.4 5.1 68 2.6 NW 33 54 18 29 1007.7 1007.7 0.2
26/01:00am 10.6 3.4 5.2 69 2.5 NW 32 44 17 24 1007.8 1007.8 0.2
26/12:30am 10.4 3.2 4.8 68 2.6 NW 32 46 17 25 1008.3 1008.3 0.2
26/12:05am 10.6 3.1 4.5 66 2.8 NW 33 52 18 28 1008.5 1008.5 0.2
26/12:00am 10.4 2.5 4.5 67 2.7 NW 35 52 19 28 1008.6 1008.6 0.2
 
Date/Time
EDT
Temp
°C
App
Temp
°C
Dew
Point
Rel
Hum
%
Delta-T
°C
Wind Press
QNH
hPa
Press
MSL
hPa
Rain
since 9 am
mm
Dir
 
Spd
km/h
Gust
km/h
Spd
kts
Gust
kts
25/11:30pm 10.8 5.9 5.3 69 2.5 NW 20 46 11 25 1009.2 1009.2 0.2
25/11:00pm 10.4 4.2 4.5 67 2.7 WNW 26 46 14 25 1009.4 1009.4 0.2
25/10:52pm 10.6 4.1 4.5 66 2.8 WNW 28 52 15 28 1009.4 1009.4 0.2
25/10:30pm 10.4 6.7 4.5 67 2.7 WNW 13 37 7 20 1009.5 1009.5 0.2
25/10:00pm 10.6 6.5 4.3 65 2.9 WNW 15 48 8 26 1009.7 1009.7 0.2
25/09:30pm 10.5 7.2 4.4 66 2.8 W 11 44 6 24 1009.8 1009.8 0.2
25/09:10pm 10.5 3.9 4.2 65 2.8 NW 28 44 15 24 1010.2 1010.1 0.2
25/09:00pm 10.5 8.0 4.9 68 2.6 N 7 26 4 14 1009.9 1009.9 0.2
25/08:30pm 10.6 8.1 4.5 66 2.8 NW 7 20 4 11 1009.7 1009.7 0.2
25/08:00pm 10.6 7.2 4.1 64 2.9 W 11 39 6 21 1009.5 1009.5 0.2
25/07:30pm 10.8 6.8 5.1 68 2.6 NNW 15 35 8 19 1009.1 1009.1 0.2
25/07:00pm 10.9 7.9 4.1 63 3.1 NW 9 30 5 16 1008.7 1008.7 0.2
25/06:30pm 11.4 8.1 4.8 64 3.0 NW 11 28 6 15 1008.4 1008.4 0.2
25/06:00pm 11.2 6.3 5.3 67 2.8 WSW 20 46 11 25 1007.7 1007.7 0.2
25/05:30pm 10.7 7.8 6.3 74 2.1 WNW 11 41 6 22 1007.9 1007.9 0.2
25/05:00pm 9.8 5.1 7.9 88 0.9 W 22 46 12 25 1007.6 1007.6 0.2
25/04:30pm 10.1 5.6 8.7 91 0.7 SW 22 52 12 28 1007.2 1007.1 0.2
25/04:00pm 10.1 5.1 7.9 86 1.1 WSW 24 52 13 28 1007.1 1007.0 0.2
25/03:30pm 9.9 3.8 8.2 89 0.8 SW 30 61 16 33 1006.7 1006.6 0.0
25/03:15pm 11.2 5.2 7.1 76 2.0 SW 28 52 15 28 1006.7 1006.6 0.0
25/03:00pm 12.2 7.0 7.1 71 2.5 SW 24 56 13 30 1006.7 1006.6 0.0
25/02:30pm 11.5 6.0 7.6 77 1.9 W 26 48 14 26 1006.7 1006.6 0.0
25/02:00pm 11.0 5.4 7.3 78 1.8 SW 26 57 14 31 1006.4 1006.3 0.0
25/01:52pm 10.7 3.0 7.2 79 1.7 SW 37 56 20 30 1006.2 1006.1 0.0
25/01:30pm 12.4 7.6 7.5 72 2.4 W 22 48 12 26 1006.0 1005.9 0.0
25/01:00pm 12.2 7.4 7.5 73 2.3 W 22 44 12 24 1005.8 1005.7 0.0
25/12:30pm 13.1 8.5 6.7 65 3.1 SSW 20 44 11 24 1005.3 1005.3 0.0
25/12:00pm 12.2 9.1 5.4 63 3.2 NNE 11 28 6 15 1005.1 1005.1 0.0
25/11:30am 11.7 7.2 6.2 69 2.6 SW 19 54 10 29 1004.7 1004.7 0.0
25/11:00am 11.6 5.6 5.5 66 2.9 WSW 26 57 14 31 1004.4 1004.4 0.0
25/10:56am 11.6 5.3 5.7 67 2.8 WSW 28 57 15 31 1004.4 1004.4 0.0
25/10:30am 11.5 6.5 4.7 63 3.1 NNE 20 37 11 20 1004.1 1004.1 0.0
25/10:00am 11.3 7.3 5.0 65 2.9 E 15 39 8 21 1003.5 1003.4 0.0
25/09:30am 11.1 7.5 5.2 67 2.7 E 13 37 7 20 1003.0 1002.9 0.0
25/09:00am 10.8 6.5 5.1 68 2.6 N 17 61 9 33 1002.6 1002.5 8.4
25/08:30am 11.0 7.1 5.5 69 2.6 NNW 15 52 8 28 1001.7 1001.6 8.4
25/08:00am 10.7 6.9 5.9 72 2.3 SSW 15 50 8 27 1001.0 1001.0 8.4
25/07:30am 10.4 5.3 5.8 73 2.1 NW 22 56 12 30 1000.6 1000.6 8.4
25/07:00am 10.4 5.3 5.8 73 2.2 SW 22 57 12 31 1000.2 1000.2 8.4
25/06:30am 10.2 6.5 6.2 76 1.9 SW 15 54 8 29 999.7 999.6 8.4
25/06:00am 10.4 6.9 5.4 71 2.3 NW 13 44 7 24 999.2 999.1 8.4
25/05:30am 10.4 6.6 5.6 72 2.2 N 15 44 8 24 999.1 999.0 8.4
25/05:00am 10.4 7.4 6.2 75 2.0 NW 11 28 6 15 999.4 999.3 8.4
25/04:30am 10.5 7.1 5.9 73 2.2 WSW 13 39 7 21 999.2 999.1 8.4
25/04:00am 10.7 7.2 5.3 69 2.5 S 13 41 7 22 999.1 999.0 8.4
25/03:30am 10.8 5.5 4.9 67 2.7 WSW 22 56 12 30 999.1 999.0 8.4
25/03:00am 10.2 4.8 4.4 67 2.6 WNW 22 39 12 21 999.7 999.6 8.4
25/02:30am 10.2 4.7 3.9 65 2.8 W 22 41 12 22 999.7 999.6 8.4
25/02:03am 10.1 2.6 4.3 67 2.6 NW 33 52 18 28 999.6 999.5 8.4
25/02:00am 10.0 1.7 4.0 66 2.7 NW 37 52 20 28 999.4 999.3 8.4
25/01:32am 10.0 3.4 4.2 67 2.6 WNW 28 46 15 25 1000.0 999.9 8.4
25/01:30am 10.1 4.3 4.3 67 2.6 WNW 24 44 13 24 1000.2 1000.2 8.4
25/01:00am 10.2 6.4 3.7 64 2.9 WNW 13 43 7 23 1000.7 1000.7 8.4
25/12:30am 10.3 6.6 4.2 66 2.7 WNW 13 37 7 20 1000.8 1000.8 8.4
25/12:00am 10.1 6.3 4.0 66 2.7 W 13 37 7 20 1001.1 1001.1 8.4
 
Date/Time
EDT
Temp
°C
App
Temp
°C
Dew
Point
Rel
Hum
%
Delta-T
°C
Wind Press
QNH
hPa
Press
MSL
hPa
Rain
since 9 am
mm
Dir
 
Spd
km/h
Gust
km/h
Spd
kts
Gust
kts
24/11:30pm 10.1 6.9 5.1 71 2.3 W 11 32 6 17 1001.5 1001.4 8.4
24/11:00pm 10.6 7.4 4.9 68 2.6 NNE 11 26 6 14 1001.2 1001.2 8.4
24/10:30pm 10.8 7.6 5.3 69 2.5 N 11 39 6 21 1001.5 1001.4 8.4
24/10:00pm 11.1 7.7 6.0 71 2.4 WNW 13 39 7 21 1001.6 1001.5 8.4
24/09:30pm 9.9 6.3 9.9 100 0.0 WSW 19 30 10 16 1001.9 1001.8 8.4
24/09:00pm 10.0 5.9 10.0 100 0.0 SW 22 35 12 19 1001.9 1001.8 8.4
24/08:30pm 10.5 6.9 10.5 100 0.0 SW 20 28 11 15 1001.9 1001.8 8.4
24/08:00pm 11.5 9.1 11.5 100 0.0 WNW 15 30 8 16 1001.7 1001.6 8.2
24/07:30pm 11.3 10.4 11.3 100 0.0 N 7 11 4 6 1001.7 1001.6 4.4
24/07:00pm 11.2 9.9 11.2 100 0.0 N 9 15 5 8 1001.5 1001.4 4.4
24/06:30pm 11.0 8.9 11.0 100 0.0 NNE 13 24 7 13 1001.6 1001.5 4.4
24/06:00pm 11.3 10.4 11.3 100 0.0 NNE 7 15 4 8 1002.2 1002.1 4.0
24/05:30pm 11.3 8.9 11.3 100 0.0 N 15 24 8 13 1002.1 1002.0 3.4
24/05:00pm 11.1 7.9 11.1 100 0.0 N 19 26 10 14 1002.7 1002.6 2.4
24/04:30pm 11.0 5.6 11.0 100 0.0 N 30 39 16 21 1003.0 1002.9 1.0
24/04:00pm 12.1 5.3 10.8 92 0.7 N 37 48 20 26 1003.3 1003.2 0.2
24/03:30pm 12.2 5.9 10.9 92 0.7 N 35 43 19 23 1003.2 1003.1 0.2
24/03:00pm 12.2 3.8 9.6 84 1.3 N 44 54 24 29 1003.7 1003.7 0.2
24/02:30pm 12.3 4.7 9.1 81 1.6 N 39 46 21 25 1004.5 1004.5 0.2
24/02:00pm 12.2 5.4 9.2 82 1.5 N 35 46 19 25 1005.0 1005.0 0.2
24/01:30pm 12.0 3.9 8.7 80 1.7 N 41 54 22 29 1005.5 1005.5 0.2
24/01:00pm 11.9 4.6 8.6 80 1.7 N 37 46 20 25 1005.8 1005.7 0.2
24/12:30pm 11.4 5.6 9.5 88 1.0 N 30 43 16 23 1005.8 1005.7 0.2
24/12:00pm 12.7 7.5 9.0 78 1.9 NNW 26 46 14 25 1006.7 1006.6 0.2
24/11:31am 12.5 5.9 8.4 76 2.1 N 33 52 18 28 1007.4 1007.4 0.0
24/11:30am 12.6 5.6 8.5 76 2.1 N 35 52 19 28 1007.3 1007.3 0.0
24/11:00am 13.9 6.4 6.5 61 3.6 N 35 46 19 25 1007.7 1007.7 0.0
24/10:30am 13.6 7.9 6.9 64 3.3 N 26 37 14 20 1007.8 1007.8 0.0
24/10:00am 13.0 9.3 7.9 71 2.5 N 17 22 9 12 1008.4 1008.4 0.0
24/09:30am 13.5 10.1 5.7 59 3.7 NNE 13 24 7 13 1008.1 1008.1 0.0
24/09:00am 13.5 9.9 6.6 63 3.4 N 15 20 8 11 1008.9 1008.9 0.4
24/08:30am 14.2 12.8 7.3 63 3.4 N 4 9 2 5 1008.6 1008.6 0.4
24/08:00am 13.9 11.3 6.3 60 3.7 NW 9 15 5 8 1008.5 1008.5 0.4
24/07:30am 13.7 10.1 4.8 55 4.2 NW 13 22 7 12 1008.2 1008.2 0.4
24/07:00am 13.9 9.0 5.0 55 4.2 NW 20 33 11 18 1008.7 1008.7 0.4
24/06:30am 14.1 9.4 5.2 55 4.2 WNW 19 30 10 16 1008.7 1008.7 0.4
24/06:00am 12.8 6.9 5.9 63 3.3 NW 26 35 14 19 1008.8 1008.8 0.4
24/05:30am 11.8 8.2 9.7 87 1.1 N 19 26 10 14 1009.0 1009.0 0.4
24/05:00am 11.4 8.6 11.2 99 0.1 N 17 22 9 12 1009.3 1009.3 0.4
24/04:30am 11.8 8.7 11.6 99 0.1 N 19 26 10 14 1009.1 1009.1 0.4
24/04:00am 11.8 8.6 11.8 100 0.0 N 20 28 11 15 1009.2 1009.2 0.4
24/03:30am 12.1 7.4 12.1 100 0.0 N 28 35 15 19 1009.7 1009.7 0.4
24/03:00am 12.1 9.1 11.9 99 0.1 NNE 19 35 10 19 1009.8 1009.8 0.4
24/02:30am 12.2 8.3 12.0 99 0.1 NNE 24 32 13 17 1010.1 1010.0 0.4
24/02:00am 12.0 8.0 11.8 99 0.1 NNE 24 33 13 18 1010.4 1010.3 0.4
24/01:30am 12.0 8.0 11.7 98 0.2 NNE 24 30 13 16 1010.9 1010.9 0.4
24/01:00am 12.0 7.5 11.5 97 0.3 NNE 26 35 14 19 1011.2 1011.2 0.4
24/12:30am 12.0 8.8 11.2 95 0.4 NNE 19 32 10 17 1011.7 1011.7 0.4
24/12:00am 12.0 7.4 11.2 95 0.4 NNE 26 33 14 18 1011.9 1011.9 0.2
 
Date/Time
EDT
Temp
°C
App
Temp
°C
Dew
Point
Rel
Hum
%
Delta-T
°C
Wind Press
QNH
hPa
Press
MSL
hPa
Rain
since 9 am
mm
Dir
 
Spd
km/h
Gust
km/h
Spd
kts
Gust
kts
23/11:30pm 11.8 7.7 11.3 97 0.3 NNE 24 32 13 17 1012.1 1012.1 0.2
23/11:00pm 11.9 8.5 11.3 96 0.3 NNE 20 28 11 15 1012.4 1012.4 0.2
23/10:30pm 12.3 8.9 10.5 89 0.9 NNE 19 32 10 17 1012.5 1012.5 0.2
23/10:00pm 12.2 8.4 11.1 93 0.6 NE 22 37 12 20 1012.2 1012.2 0.2
23/09:30pm 12.2 7.1 10.6 90 0.8 NE 28 39 15 21 1012.1 1012.1 0.2
23/09:00pm 12.1 10.6 10.5 90 0.8 NE 9 28 5 15 1011.7 1011.7 0.2
23/08:30pm 12.1 9.8 10.5 90 0.8 E 13 28 7 15 1012.0 1012.0 0.2
23/08:00pm 12.1 8.1 10.5 90 0.8 E 22 30 12 16 1011.9 1011.9 0.2
23/07:30pm 12.0 8.6 10.4 90 0.8 E 19 30 10 16 1011.6 1011.6 0.2
23/07:00pm 12.2 11.0 10.3 88 1.0 NE 7 24 4 13 1011.3 1011.3 0.2
23/06:30pm 12.6 10.3 10.3 86 1.2 E 13 24 7 13 1010.9 1010.9 0.2
23/06:00pm 13.3 12.3 10.3 82 1.6 E 6 19 3 10 1010.6 1010.5 0.2
23/05:30pm 13.1 11.1 10.3 83 1.5 ESE 11 20 6 11 1010.3 1010.2 0.2
23/05:00pm 13.1 10.6 9.7 80 1.8 ESE 13 19 7 10 1010.2 1010.1 0.2
23/04:30pm 14.5 13.4 10.7 78 2.0 ESE 7 11 4 6 1010.2 1010.1 0.2
23/04:00pm 14.4 12.8 10.2 76 2.2 SSE 9 15 5 8 1009.9 1009.9 0.2
23/03:30pm 14.4 12.0 10.2 76 2.2 SSE 13 19 7 10 1009.8 1009.8 0.2
23/03:00pm 14.8 12.4 10.2 74 2.4 S 13 20 7 11 1009.7 1009.7 0.2
23/02:30pm 15.0 12.2 10.0 72 2.6 S 15 20 8 11 1009.7 1009.7 0.2
23/02:00pm 14.5 11.3 9.9 74 2.4 S 17 22 9 12 1009.5 1009.5 0.2
23/01:30pm 15.2 12.2 10.8 75 2.4 SSW 17 24 9 13 1009.3 1009.3 0.2
23/01:00pm 15.0 11.6 10.6 75 2.4 S 19 24 10 13 1009.4 1009.4 0.2

Other Formats:

Comma delimited format used in spreadsheet applications
http://www.bom.gov.au/fwo/IDT60801/IDT60801.95986.axf

JavaScript Object Notation format (JSON) in row-major order
http://www.bom.gov.au/fwo/IDT60801/IDT60801.95986.json